Yang Li Hu — BOGE — position and weather

sailwx.info

Track history (hours):
 
Tides and Currents Weather Stations Pressure Air Temp Water Temp Dewpoint Dewpoint Depression Visibility Wind Speed Wind Dir Waves Ship Positions

Yang Li Hu

Last reported at 2016-Jan-15 12:07 UTC. Time now 2016-May-05 02:49 UTC.
Position N 01°11' E 103°36'.
Warning: this ship's position is months out of date.

Length 244 m; draft 9 m.

Type: Tanker. MMSI: 413975000.

Date/timePositionNaut miles runAvg speedWind from/ knotsBaromVisibWave heightAir tempDewpointWater temp
2016-Jan-15 12:07N 01°11' E 103°36'813.7
2016-Jan-15 11:33N 01°09' E 103°43'1212.0
2016-Jan-15 10:33N 01°13' E 103°54'1312.4
2016-Jan-15 09:32N 01°16' E 104°07'5 0.2
2016-Jan-14 07:31N 01°15' E 104°02'7 6.5
2016-Jan-14 06:23N 01°16' E 103°54'0 0.0
2016-Jan-14 05:23N 01°16' E 103°54'0 0.0
2016-Jan-14 02:29N 01°16' E 103°54'0 0.1
2016-Jan-14 01:23N 01°16' E 103°54'0 0.0
2016-Jan-14 00:32N 01°16' E 103°54'0 0.0
2016-Jan-13 23:32N 01°16' E 103°54'0 0.0
2016-Jan-13 22:23N 01°16' E 103°54'0 0.0
2016-Jan-13 21:20N 01°16' E 103°54'0 0.0
2016-Jan-13 20:23N 01°16' E 103°54'0 0.0
2016-Jan-13 19:32N 01°16' E 103°54'0 0.0
2016-Jan-13 18:23N 01°16' E 103°54'0 0.0
2016-Jan-13 17:29N 01°16' E 103°54'0 0.0
2016-Jan-13 16:17N 01°16' E 103°54'0 0.0
2016-Jan-13 15:32N 01°16' E 103°54'0 0.1
2016-Jan-13 14:29N 01°16' E 103°54'0 0.0
2016-Jan-13 13:23N 01°16' E 103°54'0 0.1
2016-Jan-13 11:33N 01°16' E 103°54'1 0.7
2016-Jan-13 10:33N 01°16' E 103°55'6 5.5
2016-Jan-13 09:32N 01°16' E 104°01'  
Track history (hours):
 
Tides and Currents Weather Stations Pressure Air Temp Water Temp Dewpoint Dewpoint Depression Visibility Wind Speed Wind Dir Waves Ship Positions

Yang Li Hu

Last reported at 2016-Jan-15 12:07 UTC. Time now 2016-May-05 02:49 UTC.
Position N 01°11' E 103°36'.
Warning: this ship's position is months out of date.

Length 244 m; draft 9 m.

Type: Tanker. MMSI: 413975000.

Date/timePositionNaut miles runAvg speedWind from/ knotsBaromVisibWave heightAir tempDewpointWater temp
2016-Jan-15 12:07N 01°11' E 103°36'813.7
2016-Jan-15 11:33N 01°09' E 103°43'1212.0
2016-Jan-15 10:33N 01°13' E 103°54'1312.4
2016-Jan-15 09:32N 01°16' E 104°07'5 0.2
2016-Jan-14 07:31N 01°15' E 104°02'7 6.5
2016-Jan-14 06:23N 01°16' E 103°54'0 0.0
2016-Jan-14 05:23N 01°16' E 103°54'0 0.0
2016-Jan-14 02:29N 01°16' E 103°54'0 0.1
2016-Jan-14 01:23N 01°16' E 103°54'0 0.0
2016-Jan-14 00:32N 01°16' E 103°54'0 0.0
2016-Jan-13 23:32N 01°16' E 103°54'0 0.0
2016-Jan-13 22:23N 01°16' E 103°54'0 0.0
2016-Jan-13 21:20N 01°16' E 103°54'0 0.0
2016-Jan-13 20:23N 01°16' E 103°54'0 0.0
2016-Jan-13 19:32N 01°16' E 103°54'0 0.0
2016-Jan-13 18:23N 01°16' E 103°54'0 0.0
2016-Jan-13 17:29N 01°16' E 103°54'0 0.0
2016-Jan-13 16:17N 01°16' E 103°54'0 0.0
2016-Jan-13 15:32N 01°16' E 103°54'0 0.1
2016-Jan-13 14:29N 01°16' E 103°54'0 0.0
2016-Jan-13 13:23N 01°16' E 103°54'0 0.1
2016-Jan-13 11:33N 01°16' E 103°54'1 0.7
2016-Jan-13 10:33N 01°16' E 103°55'6 5.5
2016-Jan-13 09:32N 01°16' E 104°01'  

Dump ship's entire track history